Latest Weather Observations for kunanyi / Mount Wellington

IDT60901

Issued at 12:01 pm EST Tuesday 21 September 2021 (issued every 10 minutes, with the page automatically refreshed every 10 minutes)

About weather observations | Map of Hobart area stations | Latest observations for Hobart area | Other Formats
Station Details ID: 094087 Name: KUNANYI (MOUNT WELLINGTON PINNACLE) Lat: -42.90 Lon: 147.24 Height: 1260.47 m
Data from the previous 72 hours. | See also: Recent months at kunanyi / Mount Wellington
Date/Time
EST
Temp
°C
App
Temp
°C
Dew
Point
°C
Rel
Hum
%
Delta-T
°C
Wind Press
QNH
hPa
Press
MSL
hPa
Rain since
9am
mm
Dir  Spd
km/h
Gust
km/h
Spd
kts
Gust
kts
21/12:00pm -1.2 -9.4 -1.2 100 0.0 WSW 32 37 17 20 - - 0.0
21/11:30am -1.8 -10.1 -1.8 100 0.0 WSW 32 41 17 22 - - 0.0
21/11:00am -2.5 -11.5 -2.5 100 0.0 WSW 35 43 19 23 - - 0.0
21/10:30am -2.6 -10.3 -2.6 100 0.0 WSW 28 35 15 19 - - 0.0
21/10:00am -2.5 -10.5 -2.5 100 0.0 WSW 30 39 16 21 - - 0.0
21/09:30am -2.5 -9.8 -2.5 100 0.0 WSW 26 35 14 19 - - 0.0
21/09:00am -2.8 -11.4 -2.8 100 0.0 SW 33 41 18 22 - - 0.6
21/08:30am -3.1 -10.8 -3.1 100 0.0 SW 28 43 15 23 - - 0.6
21/08:00am -3.4 -11.5 -3.5 99 -0.1 SW 30 35 16 19 - - 0.6
21/07:30am -3.6 -12.3 -3.7 99 -0.1 SW 33 41 18 22 - - 0.6
21/07:00am -3.9 -12.7 -4.0 99 -0.1 SW 33 41 18 22 - - 0.6
21/06:30am -3.6 -11.4 -3.7 99 -0.1 SW 28 35 15 19 - - 0.6
21/06:00am -3.7 -10.7 -3.8 99 -0.1 WSW 24 30 13 16 - - 0.6
21/05:30am -3.8 -11.2 -3.9 99 -0.1 WSW 26 32 14 17 - - 0.6
21/05:00am -3.9 -12.1 -4.0 99 -0.1 WSW 30 39 16 21 - - 0.6
21/04:30am -3.9 -12.1 -4.0 99 -0.1 SW 30 39 16 21 - - 0.6
21/04:00am -3.7 -12.4 -3.8 99 -0.1 SW 33 41 18 22 - - 0.6
21/03:30am -3.7 -12.4 -3.8 99 -0.1 SW 33 43 18 23 - - 0.6
21/03:00am -3.5 -12.6 -3.6 99 -0.1 SW 35 44 19 24 - - 0.6
21/02:30am -3.2 -9.8 -3.2 100 0.0 WSW 22 35 12 19 - - 0.4
21/02:00am -3.2 -10.2 -3.2 100 0.0 WSW 24 30 13 16 - - 0.4
21/01:30am -3.1 -11.6 -3.1 100 0.0 SW 32 39 17 21 - - 0.4
21/01:00am -3.1 -11.8 -3.1 100 0.0 SW 33 43 18 23 - - 0.4
21/12:30am -3.2 -12.6 -3.2 100 0.0 SW 37 44 20 24 - - 0.4
21/12:00am -3.3 -11.8 -3.3 100 0.0 WSW 32 43 17 23 - - 0.4
 
Date/Time
EST
Temp
°C
App
Temp
°C
Dew
Point
°C
Rel
Hum
%
Delta-T
°C
Wind Press
QNH
hPa
Press
MSL
hPa
Rain since
9am
mm
Dir  Spd
km/h
Gust
km/h
Spd
kts
Gust
kts
20/11:30pm -3.0 -11.1 -3.0 100 0.0 WSW 30 44 16 24 - - 0.4
20/11:20pm -2.8 -10.5 -2.8 100 0.0 SW 28 48 15 26 - - 0.4
20/11:00pm -2.7 -11.3 -2.7 100 0.0 WSW 33 44 18 24 - - 0.4
20/10:30pm -2.4 -10.8 -2.4 100 0.0 SW 32 43 17 23 - - 0.4
20/10:20pm -2.4 -10.4 -2.4 100 0.0 WSW 30 50 16 27 - - 0.4
20/10:00pm -2.4 -10.0 -2.4 100 0.0 SW 28 39 15 21 - - 0.4
20/09:30pm -2.2 -10.8 -2.2 100 0.0 SW 33 46 18 25 - - 0.2
20/09:00pm -2.2 -10.8 -2.2 100 0.0 SW 33 41 18 22 - - 0.2
20/08:30pm -2.0 -10.3 -2.0 100 0.0 SW 32 43 17 23 - - 0.2
20/08:16pm -2.0 -10.9 -2.0 100 0.0 SW 35 54 19 29 - - 0.2
20/08:00pm -1.9 -10.8 -1.9 100 0.0 SW 35 44 19 24 - - 0.2
20/07:30pm -1.8 -12.2 -1.8 100 0.0 SW 43 56 23 30 - - 0.2
20/07:06pm -1.9 -12.5 -1.9 100 0.0 WSW 44 63 24 34 - - 0.2
20/07:00pm -1.9 -13.3 -1.9 100 0.0 WSW 48 65 26 35 - - 0.2
20/06:50pm -1.9 -13.3 -1.9 100 0.0 WSW 48 67 26 36 - - 0.2
20/06:30pm -1.7 -13.0 -1.7 100 0.0 WSW 48 61 26 33 - - 0.2
20/06:00pm -1.7 -13.8 -1.7 100 0.0 WSW 52 70 28 38 - - 0.2
20/05:30pm -1.9 -15.0 -1.9 100 0.0 WSW 57 74 31 40 - - 0.2
20/05:28pm -1.9 -14.8 -1.9 100 0.0 WSW 56 74 30 40 - - 0.2
20/05:00pm -1.6 -14.1 -1.6 100 0.0 WSW 54 65 29 35 - - 0.2
20/04:30pm -1.6 -14.6 -1.6 100 0.0 WSW 57 70 31 38 - - 0.2
20/04:00pm -1.7 -15.5 -1.7 100 0.0 WSW 61 80 33 43 - - 0.2
20/03:34pm -1.6 -15.4 -1.6 100 0.0 WSW 61 82 33 44 - - 0.2
20/03:30pm -1.6 -15.0 -1.6 100 0.0 WSW 59 76 32 41 - - 0.2
20/03:00pm -0.8 -14.9 -0.9 99 0.0 WSW 63 83 34 45 - - 0.2
20/02:35pm -0.8 -14.2 -1.5 95 0.2 WSW 59 82 32 44 - - 0.2
20/02:30pm -0.7 -14.5 -1.5 94 0.3 WSW 61 76 33 41 - - 0.2
20/02:00pm -0.8 -13.8 -1.4 96 0.2 WSW 57 76 31 41 - - 0.2
20/01:30pm -0.8 -14.5 -1.2 97 0.1 W 61 82 33 44 - - 0.2
20/01:00pm -1.1 -13.5 -1.4 98 0.1 WSW 54 82 29 44 - - 0.0
20/12:58pm -1.2 -13.7 -1.6 97 0.1 WSW 54 82 29 44 - - 0.0
20/12:30pm -1.4 -14.3 -1.8 97 0.1 W 56 72 30 39 - - 0.0
20/12:00pm -1.5 -14.6 -1.8 98 0.0 W 57 70 31 38 - - 0.0
20/11:41am -1.4 -16.0 -2.1 95 0.2 W 65 83 35 45 - - 0.0
20/11:30am -1.6 -15.9 -2.3 95 0.2 W 63 83 34 45 - - 0.0
20/11:29am -1.6 -15.9 -2.3 95 0.2 W 63 83 34 45 - - 0.0
20/11:00am -1.9 -13.3 -2.5 96 0.1 W 48 69 26 37 - - 0.0
20/10:30am -1.7 -14.2 -2.0 98 0.0 W 54 72 29 39 - - 0.0
20/10:26am -1.7 -14.2 -2.0 98 0.0 W 54 72 29 39 - - 0.0
20/10:00am -1.8 -13.2 -1.8 100 0.0 W 48 63 26 34 - - 0.0
20/09:30am -2.3 -12.8 -2.3 100 0.0 W 43 54 23 29 - - 0.0
20/09:00am -2.3 -14.9 -2.3 100 0.0 W 54 74 29 40 - - 3.4
20/08:55am -2.4 -14.2 -2.4 100 0.0 W 50 74 27 40 - - 3.4
20/08:30am -2.2 -13.2 -2.2 100 0.0 WSW 46 61 25 33 - - 3.2
20/08:00am -2.1 -12.7 -2.1 100 0.0 WSW 44 59 24 32 - - 3.2
20/07:30am -1.8 -12.8 -1.8 100 0.0 WSW 46 65 25 35 - - 3.2
20/07:00am -1.7 -13.8 -1.7 100 0.0 W 52 65 28 35 - - 3.2
20/06:30am -2.0 -12.6 -2.0 100 0.0 WNW 44 57 24 31 - - 3.2
20/06:00am -2.1 -13.5 -2.1 100 0.0 WNW 48 63 26 34 - - 3.2
20/05:38am -2.1 -15.2 -2.1 100 0.0 WNW 57 78 31 42 - - 3.2
20/05:30am -1.9 -15.0 -1.9 100 0.0 WNW 57 70 31 38 - - 3.2
20/05:22am -2.0 -13.4 -2.0 100 0.0 WNW 48 69 26 37 - - 3.2
20/05:00am -2.0 -11.7 -2.0 100 0.0 WNW 39 50 21 27 - - 3.2
20/04:30am -1.9 -13.3 -1.9 100 0.0 WNW 48 61 26 33 - - 3.2
20/04:23am -1.9 -14.4 -1.9 100 0.0 WNW 54 72 29 39 - - 3.2
20/04:00am -1.9 -16.5 -1.9 100 0.0 WNW 65 80 35 43 - - 3.2
20/03:51am -1.9 -15.0 -1.9 100 0.0 WNW 57 76 31 41 - - 3.2
20/03:30am -1.9 -13.6 -1.9 100 0.0 W 50 65 27 35 - - 3.2
20/03:03am -1.9 -14.8 -1.9 100 0.0 WNW 56 74 30 40 - - 3.2
20/03:00am -1.9 -14.4 -1.9 100 0.0 WNW 54 69 29 37 - - 3.2
20/02:33am -1.9 -13.6 -1.9 100 0.0 WNW 50 70 27 38 - - 3.2
20/02:30am -1.9 -13.3 -1.9 100 0.0 WNW 48 61 26 33 - - 3.2
20/02:01am -2.3 -15.4 -2.4 99 -0.1 WNW 57 76 31 41 - - 3.2
20/02:00am -2.3 -15.8 -2.4 99 -0.1 WNW 59 76 32 41 - - 3.2
20/01:33am -1.9 -14.4 -1.9 100 0.0 WNW 54 72 29 39 - - 3.2
20/01:30am -2.0 -14.9 -2.0 100 0.0 WNW 56 72 30 39 - - 3.2
20/01:00am -1.6 -14.1 -1.6 100 0.0 WNW 54 80 29 43 - - 3.2
20/12:49am -1.6 -13.7 -1.6 100 0.0 WNW 52 70 28 38 - - 3.2
20/12:30am -1.6 -14.4 -1.6 100 0.0 WNW 56 69 30 37 - - 3.2
20/12:12am -1.6 -14.4 -1.6 100 0.0 WNW 56 76 30 41 - - 3.2
20/12:00am -1.8 -14.9 -1.8 100 0.0 WNW 57 74 31 40 - - 3.2
 
Date/Time
EST
Temp
°C
App
Temp
°C
Dew
Point
°C
Rel
Hum
%
Delta-T
°C
Wind Press
QNH
hPa
Press
MSL
hPa
Rain since
9am
mm
Dir  Spd
km/h
Gust
km/h
Spd
kts
Gust
kts
19/11:56pm -1.7 -13.8 -1.7 100 0.0 WNW 52 72 28 39 - - 3.2
19/11:30pm -1.2 -14.0 -1.2 100 0.0 NW 56 72 30 39 - - 3.2
19/11:00pm -1.3 -14.7 -1.3 100 0.0 WNW 59 80 32 43 - - 3.2
19/10:40pm -1.5 -14.3 -1.5 100 0.0 WNW 56 76 30 41 - - 3.2
19/10:30pm -1.5 -14.9 -1.8 98 0.0 WNW 59 76 32 41 - - 3.2
19/10:10pm -1.3 -14.8 -2.3 93 0.3 WNW 59 78 32 42 - - 3.2
19/10:00pm -1.2 -15.5 -2.2 93 0.3 WNW 63 76 34 41 - - 3.2
19/09:30pm -1.5 -16.1 -2.1 96 0.1 WNW 65 85 35 46 - - 3.2
19/09:00pm -1.4 -17.1 -3.0 89 0.5 WNW 70 89 38 48 - - 3.2
19/08:30pm -1.3 -17.4 -3.3 86 0.7 WNW 72 95 39 51 - - 3.2
19/08:00pm -1.3 -18.3 -4.3 80 1.0 W 76 102 41 55 - - 3.0
19/07:30pm -1.1 -16.4 -1.2 99 0.0 W 69 89 37 48 - - 3.0
19/07:00pm -0.6 -13.9 -0.9 98 0.1 W 59 83 32 45 - - 3.0
19/06:30pm -0.5 -14.9 -0.8 98 0.1 WNW 65 85 35 46 - - 3.0
19/06:00pm 0.1 -13.6 -0.9 93 0.4 W 61 83 33 45 - - 3.0
19/05:30pm 0.4 -14.3 0.4 100 0.0 W 67 98 36 53 - - 3.0
19/05:24pm 0.8 -11.7 0.8 100 0.0 W 56 98 30 53 - - 3.0
19/05:03pm 1.3 -10.0 1.3 100 0.0 WNW 50 76 27 41 - - 3.0
19/05:00pm 1.4 -10.2 1.4 100 0.0 WNW 52 61 28 33 - - 3.0
19/04:30pm 1.8 -10.5 1.8 100 0.0 WNW 56 76 30 41 - - 3.0
19/04:05pm 2.7 -9.2 2.4 98 0.1 NW 54 72 29 39 - - 2.8
19/04:00pm 2.8 -9.6 2.8 100 0.0 NW 57 76 31 41 - - 2.8
19/03:30pm 2.7 -10.1 2.7 100 0.0 WNW 59 87 32 47 - - 2.8
19/03:00pm 3.2 -9.5 2.8 97 0.2 WNW 59 87 32 47 - - 2.8
19/02:30pm 3.5 -8.2 3.5 100 0.0 W 54 74 29 40 - - 2.8
19/02:19pm 3.6 -6.9 3.6 100 0.0 WNW 48 67 26 36 - - 2.6
19/02:00pm 3.5 -8.5 3.5 100 0.0 WNW 56 72 30 39 - - 2.6
19/01:33pm 3.9 -9.0 3.8 99 0.0 WNW 61 82 33 44 - - 2.6
19/01:30pm 4.1 -9.2 4.1 100 0.0 WNW 63 82 34 44 - - 2.6
19/01:00pm 4.5 -7.9 4.5 100 0.0 WNW 59 87 32 47 - - 2.6
19/12:55pm 4.3 -8.5 4.3 100 0.0 WNW 61 87 33 47 - - 2.6
19/12:30pm 4.1 -11.3 4.1 100 0.0 WNW 74 95 40 51 - - 2.6
19/12:28pm 3.9 -11.5 3.9 100 0.0 WNW 74 95 40 51 - - 2.6
19/12:00pm 3.0 -9.3 3.0 100 0.0 W 57 89 31 48 - - 2.4
19/11:39am 3.9 -8.6 3.9 100 0.0 WNW 59 78 32 42 - - 1.2
19/11:30am 3.9 -9.8 3.9 100 0.0 WNW 65 78 35 42 - - 0.6
19/11:00am 3.6 -9.8 3.6 100 0.0 NW 63 82 34 44 - - 0.4
19/10:30am 3.6 -10.5 3.6 100 0.0 NW 67 96 36 52 - - 0.0
19/10:05am 3.4 -11.3 3.4 100 0.0 NW 70 91 38 49 - - 0.0
19/10:00am 3.3 -11.4 3.3 100 0.0 NW 70 89 38 48 - - 0.0
19/09:37am 2.9 -13.1 2.9 100 0.0 NW 76 95 41 51 - - 0.0
19/09:30am 2.8 -13.9 2.8 100 0.0 NW 80 95 43 51 - - 0.0
19/09:09am 2.6 -14.2 2.6 100 0.0 NW 80 98 43 53 - - 0.0
19/09:00am 2.4 -15.0 2.4 100 0.0 NW 83 100 45 54 - - 0.0
19/08:30am 2.0 -15.4 2.0 100 0.0 NW 83 98 45 53 - - 0.0
19/08:00am 1.4 -14.8 1.4 100 0.0 WNW 76 100 41 54 - - 0.0
19/07:30am 1.1 -15.2 1.1 100 0.0 WNW 76 95 41 51 - - 0.0
19/07:07am 0.6 -14.6 0.6 100 0.0 NW 70 91 38 49 - - 0.0
19/07:00am 0.6 -15.4 0.6 100 0.0 NW 74 91 40 49 - - 0.0
19/06:31am 0.3 -14.0 0.3 100 0.0 NW 65 83 35 45 - - 0.0
19/06:30am 0.2 -13.7 0.2 100 0.0 NW 63 82 34 44 - - 0.0
19/06:00am 0.1 -13.1 0.1 100 0.0 NW 59 78 32 42 - - 0.0
19/05:35am 0.0 -12.2 0.0 100 0.0 NW 54 72 29 39 - - 0.0
19/05:30am 0.0 -12.2 0.0 100 0.0 NW 54 69 29 37 - - 0.0
19/05:00am -0.1 -12.4 -0.1 100 0.0 NW 54 65 29 35 - - 0.0
19/04:30am -0.2 -12.1 -0.2 100 0.0 NW 52 69 28 37 - - 0.0
19/04:00am -0.5 -12.8 -0.5 100 0.0 NW 54 70 29 38 - - 0.0
19/03:43am -0.6 -12.2 -0.6 100 0.0 NW 50 69 27 37 - - 0.0
19/03:30am -0.7 -11.5 -0.7 100 0.0 NW 46 61 25 33 - - 0.0
19/03:00am -1.0 -10.9 -1.0 100 0.0 NW 41 57 22 31 - - 0.0
19/02:30am -1.1 -10.3 -1.1 100 0.0 NW 37 50 20 27 - - 0.0
19/02:18am -1.2 -12.1 -1.2 100 0.0 WNW 46 67 25 36 - - 0.0
19/02:00am -1.3 -14.7 -1.3 100 0.0 WNW 59 83 32 45 - - 0.0
19/01:30am -1.2 -14.9 -1.2 100 0.0 WNW 61 85 33 46 - - 0.0
19/01:02am -1.4 -12.7 -1.4 100 0.0 WNW 48 67 26 36 - - 0.0
19/01:00am -1.5 -12.1 -1.5 100 0.0 WNW 44 57 24 31 - - 0.0
19/12:30am -1.6 -12.5 -1.6 100 0.0 WNW 46 57 25 31 - - 0.0
19/12:02am -1.5 -12.8 -1.5 100 0.0 WNW 48 69 26 37 - - 0.0
19/12:00am -1.5 -13.2 -1.5 100 0.0 WNW 50 69 27 37 - - 0.0
 
Date/Time
EST
Temp
°C
App
Temp
°C
Dew
Point
°C
Rel
Hum
%
Delta-T
°C
Wind Press
QNH
hPa
Press
MSL
hPa
Rain since
9am
mm
Dir  Spd
km/h
Gust
km/h
Spd
kts
Gust
kts
18/11:30pm -1.3 -15.9 -2.1 94 0.2 W 65 91 35 49 - - 0.0
18/11:02pm -1.8 -17.4 -2.2 97 0.1 W 70 91 38 49 - - 0.0
18/11:00pm -1.8 -17.8 -2.4 96 0.1 W 72 91 39 49 - - 0.0
18/10:30pm -1.6 -17.3 -2.9 91 0.4 W 70 93 38 50 - - 0.0
18/10:00pm -2.1 -17.2 -2.9 94 0.2 W 67 89 36 48 - - 0.0
18/09:30pm -2.2 -18.2 -2.5 98 0.0 W 72 96 39 52 - - 0.0
18/09:00pm -2.0 -18.5 -3.3 91 0.4 W 74 95 40 51 - - 0.0
18/08:30pm -2.2 -17.3 -2.9 95 0.1 W 67 89 36 48 - - 0.0
18/08:00pm -2.1 -17.1 -2.4 98 0.0 W 67 89 36 48 - - 0.0
18/07:30pm -1.9 -17.5 -2.2 98 0.0 W 70 95 38 51 - - 0.0
18/07:24pm -2.0 -17.0 -2.1 99 -0.1 W 67 95 36 51 - - 0.0
18/07:00pm -1.9 -14.8 -1.9 100 0.0 W 56 76 30 41 - - 0.0
18/06:30pm -1.8 -13.5 -1.8 100 0.0 W 50 70 27 38 - - 0.0
18/06:28pm -1.8 -13.5 -1.8 100 0.0 W 50 70 27 38 - - 0.0
18/06:00pm -1.8 -13.9 -1.9 99 -0.1 W 52 70 28 38 - - 0.0
18/05:30pm -1.8 -14.3 -1.8 100 0.0 W 54 78 29 42 - - 0.0
18/05:00pm -1.5 -15.4 -2.5 93 0.3 W 61 83 33 45 - - 0.0
18/04:41pm -1.4 -13.8 -1.4 100 0.0 W 54 78 29 42 - - 0.0
18/04:30pm -1.0 -11.5 -1.1 99 0.0 W 44 63 24 34 - - 0.0
18/04:23pm -0.8 -11.3 -1.4 96 0.2 W 44 63 24 34 - - 0.0
18/04:22pm -0.7 -11.2 -1.4 95 0.2 W 44 63 24 34 - - 0.0
18/04:02pm -0.4 -13.5 -2.3 87 0.7 W 57 80 31 43 - - 0.0
18/04:00pm -0.4 -13.3 -2.3 87 0.7 W 56 72 30 39 - - 0.0
18/03:30pm -0.6 -11.8 -0.9 98 0.1 W 48 72 26 39 - - 0.0
18/03:18pm -0.3 -13.3 -1.1 94 0.3 W 57 85 31 46 - - 0.0
18/03:16pm -0.2 -13.6 -1.2 93 0.4 W 59 85 32 46 - - 0.0
18/03:11pm 0.1 -14.9 -1.8 87 0.7 W 67 85 36 46 - - 0.0
18/03:00pm 0.4 -14.6 -2.0 84 0.9 W 67 83 36 45 - - 0.0
18/02:44pm 0.9 -12.1 -1.5 84 1.0 WNW 57 82 31 44 - - 0.0
18/02:30pm 0.4 -13.4 -1.7 86 0.8 WNW 61 80 33 43 - - 0.0
18/02:00pm 0.7 -12.3 -1.2 87 0.8 WNW 57 78 31 42 - - 0.0
18/01:30pm 0.9 -13.0 -2.3 79 1.2 W 61 95 33 51 - - 0.0
18/01:00pm 1.4 -13.7 -0.2 89 0.6 WNW 69 91 37 49 - - 0.0
18/12:34pm 0.7 -14.0 -0.2 94 0.4 WNW 67 87 36 47 - - 0.0
18/12:30pm 0.4 -13.6 -0.3 95 0.3 WNW 63 80 34 43 - - 0.0
18/12:02pm 2.4 -10.8 0.1 85 0.9 WNW 59 80 32 43 - - 0.0

Latest Capital City Observations: Canberra | Sydney | Melbourne | Brisbane | Adelaide | Perth | Hobart | Darwin

Other formats

Comma delimited format used in spreadsheet applications
http://www.bom.gov.au/fwo/IDT60901/IDT60901.95979.axf

JavaScript Object Notation format (JSON) in row-major order
http://www.bom.gov.au/fwo/IDT60901/IDT60901.95979.json

Data quality

Most of these data are generated automatically and are frequently updated. Quality checks on data are not normally performed. It is possible for incorrect values to appear. Refer to information at About Latest Weather Observations and please check the disclaimer before using these data.